Time;durP1;ratioP1;P1;durP2;ratioP2;P2;SDS_P1;SDS_P2;PMS_P1;PMS_P2;Temp;Humidity;BMP_temperature;BMP_pressure;BME280_temperature;BME280_humidity;BME280_pressure;Samples;Min_cycle;Max_cycle;Signal;HPM_P1;HPM_P2
2022/02/21 00:00:16;;;;;;;;;;;5.50;99.90;;;;;;5073315;28;19928;-55
2022/02/21 00:02:44;;;;;;;;;;;5.50;99.90;;;;;;5072510;28;19928;-54
2022/02/21 00:05:11;;;;;;;;;;;5.50;99.90;;;;;;5072524;28;19920;-54
2022/02/21 00:07:37;;;;;;;;;;;5.50;99.90;;;;;;5072100;28;19928;-57
2022/02/21 00:10:04;;;;;;;;;;;5.50;99.90;;;;;;5072578;28;19993;-55
2022/02/21 00:12:31;;;;;;;;;;;5.50;99.90;;;;;;5072769;28;19920;-55
2022/02/21 00:14:58;;;;;;;;;;;5.50;99.90;;;;;;5072734;28;19924;-56
2022/02/21 00:17:25;;;;;;;;;;;5.50;99.90;;;;;;5072611;28;19924;-55
2022/02/21 00:19:52;;;;;;;;;;;5.50;99.90;;;;;;5072822;28;19935;-56
2022/02/21 00:22:18;;;;;;;;;;;5.50;99.90;;;;;;5072555;28;19920;-58
2022/02/21 00:24:45;;;;;;;;;;;5.50;99.90;;;;;;5072844;28;20433;-57
2022/02/21 00:27:11;;;;;;;;;;;5.50;99.90;;;;;;5072515;28;19928;-55
2022/02/21 00:29:38;;;;;;;;;;;5.50;99.90;;;;;;5072194;28;19927;-56
2022/02/21 00:32:05;;;;;;;;;;;5.50;99.90;;;;;;5072462;28;19921;-57
2022/02/21 00:34:33;;;;;;;;;;;5.50;99.90;;;;;;5072030;28;19994;-57
2022/02/21 00:36:59;;;;;;;;;;;5.60;99.90;;;;;;5072682;28;19920;-55
2022/02/21 00:39:26;;;;;;;;;;;5.60;99.90;;;;;;5073167;28;19924;-61
2022/02/21 00:41:52;;;;;;;;;;;5.60;99.90;;;;;;5072603;28;19924;-56
2022/02/21 00:44:19;;;;;;;;;;;5.60;99.90;;;;;;5072173;28;19921;-58
2022/02/21 00:46:46;;;;;;;;;;;5.70;99.90;;;;;;5072676;28;20436;-58
2022/02/21 00:49:12;;;;;;;;;;;5.70;99.90;;;;;;5072422;28;19928;-53
2022/02/21 00:51:40;;;;;;;;;;;5.70;99.90;;;;;;5072195;28;19920;-55
2022/02/21 00:54:06;;;;;;;;;;;5.70;99.90;;;;;;5072974;28;19920;-59
2022/02/21 00:56:33;;;;;;;;;;;5.70;99.90;;;;;;5072522;28;19924;-59
2022/02/21 00:58:59;;;;;;;5.93;2.03;;;5.70;99.90;;;;;;5071021;28;20417;-59
2022/02/21 01:01:26;;;;;;;7.22;2.03;;;5.80;99.90;;;;;;5070712;28;20832;-54
2022/02/21 01:03:53;;;;;;;;;;;5.90;99.90;;;;;;5071898;28;20052;-55
2022/02/21 01:06:19;;;;;;;;;;;5.90;99.90;;;;;;5075411;28;19924;-53
2022/02/21 01:08:47;;;;;;;;;;;5.90;99.90;;;;;;5075875;28;19950;-55
2022/02/21 01:11:14;;;;;;;;;;;5.90;99.90;;;;;;5076064;28;19950;-57
2022/02/21 01:13:41;;;;;;;;;;;5.80;99.90;;;;;;5075831;28;19921;-52
2022/02/21 01:16:07;;;;;;;;;;;5.80;99.90;;;;;;5075461;28;20345;-55
2022/02/21 01:18:34;;;;;;;;;;;5.80;99.90;;;;;;5075129;28;19920;-54
2022/02/21 01:21:01;;;;;;;;;;;5.80;96.90;;;;;;5075376;28;19974;-52
2022/02/21 01:23:28;;;;;;;;;;;5.80;71.20;;;;;;5075115;28;19966;-57
2022/02/21 01:25:56;;;;;;;;;;;5.70;28.40;;;;;;5075079;28;19978;-51
2022/02/21 01:28:22;;;;;;;;;;;5.70;15.30;;;;;;5075330;28;19920;-54
2022/02/21 01:30:49;;;;;;;;;;;5.60;21.90;;;;;;5075064;28;19925;-52
2022/02/21 01:33:16;;;;;;;;;;;5.60;1.00;;;;;;5075056;28;19920;-58
2022/02/21 01:35:42;;;;;;;;;;;5.60;1.00;;;;;;5074885;28;20440;-55
2022/02/21 01:38:09;;;;;;;;;;;5.60;1.00;;;;;;5074843;28;19920;-56
2022/02/21 01:40:35;;;;;;;;;;;5.50;1.00;;;;;;5074891;28;19966;-55
2022/02/21 01:43:03;;;;;;;;;;;5.50;1.00;;;;;;5075561;28;19920;-58
2022/02/21 01:45:30;;;;;;;;;;;5.50;1.20;;;;;;5075945;28;20434;-56
2022/02/21 01:47:56;;;;;;;;;;;5.50;1.00;;;;;;5074819;28;19932;-55
2022/02/21 01:50:23;;;;;;;;;;;5.50;1.00;;;;;;5076256;28;19928;-54
2022/02/21 01:52:49;;;;;;;;;;;5.50;1.00;;;;;;5076087;28;19951;-55
2022/02/21 01:55:16;;;;;;;;;;;5.50;1.00;;;;;;5076197;28;19925;-58
2022/02/21 01:57:42;;;;;;;;;;;5.40;1.00;;;;;;5074734;28;19974;-53
2022/02/21 02:00:12;;;;;;;;;;;5.40;1.00;;;;;;5074695;28;19920;-56
2022/02/21 02:02:41;;;;;;;;;;;5.40;1.00;;;;;;5074404;28;20022;-57
2022/02/21 02:05:08;;;;;;;;;;;5.40;1.00;;;;;;5074781;28;19927;-55
2022/02/21 02:07:35;;;;;;;;;;;5.40;1.00;;;;;;5074403;28;19931;-54
2022/02/21 02:10:01;;;;;;;;;;;5.30;1.00;;;;;;5074420;28;19927;-51
2022/02/21 02:12:28;;;;;;;;;;;5.20;1.00;;;;;;5074568;28;20306;-53
2022/02/21 02:14:54;;;;;;;;;;;5.20;1.00;;;;;;5074006;28;19970;-56
2022/02/21 02:17:23;;;;;;;;;;;5.20;1.00;;;;;;5073346;28;19920;-54
2022/02/21 02:19:50;;;;;;;;;;;5.20;1.00;;;;;;5074184;28;19927;-55
2022/02/21 02:22:18;;;;;;;;;;;5.10;1.00;;;;;;5074100;28;19927;-56
2022/02/21 02:24:47;;;;;;;;;;;5.10;1.00;;;;;;5074052;28;19928;-54
2022/02/21 02:27:14;;;;;;;;;;;5.10;1.00;;;;;;5074056;28;19920;-56
2022/02/21 02:29:42;;;;;;;;;;;5.00;1.00;;;;;;5074030;28;19924;-56
2022/02/21 02:32:09;;;;;;;;;;;5.00;99.90;;;;;;5074431;28;19920;-56
2022/02/21 02:34:37;;;;;;;;;;;5.10;1.00;;;;;;5074582;28;19973;-55
2022/02/21 02:37:04;;;;;;;;;;;5.00;99.90;;;;;;5073922;28;19946;-56
2022/02/21 02:39:32;;;;;;;;;;;5.00;89.60;;;;;;5074027;28;19927;-55
2022/02/21 02:41:59;;;;;;;;;;;4.90;99.90;;;;;;5073571;28;20553;-54
2022/02/21 02:44:25;;;;;;;;;;;4.90;1.00;;;;;;5074745;28;19924;-59
2022/02/21 02:46:52;;;;;;;;;;;4.90;1.00;;;;;;5073748;28;19965;-56
2022/02/21 02:49:19;;;;;;;;;;;4.90;99.90;;;;;;5073668;28;19920;-53
2022/02/21 02:51:45;;;;;;;;;;;4.90;1.00;;;;;;5073578;28;20639;-57
2022/02/21 02:54:12;;;;;;;;;;;4.90;1.00;;;;;;5073770;28;19981;-58
2022/02/21 02:56:40;;;;;;;;;;;4.90;1.00;;;;;;5073791;28;19927;-56
2022/02/21 02:59:07;;;;;;;;;;;4.90;99.90;;;;;;5073593;28;19977;-53
2022/02/21 03:01:34;;;;;;;;;;;4.90;99.90;;;;;;5073720;28;19920;-54
2022/02/21 03:04:01;;;;;;;;;;;5.00;1.00;;;;;;5073536;28;20271;-55
2022/02/21 03:06:28;;;;;;;;;;;4.90;1.00;;;;;;5074111;28;19927;-55
2022/02/21 03:08:54;;;;;;;;;;;5.00;99.90;;;;;;5073292;28;19924;-56
2022/02/21 03:11:21;;;;;;;;;;;4.90;99.90;;;;;;5073547;28;19931;-54
2022/02/21 03:13:49;;;;;;;;;;;4.90;99.90;;;;;;5073535;28;20023;-56
2022/02/21 03:16:15;;;;;;;;;;;4.90;99.90;;;;;;5072898;28;19928;-55
2022/02/21 03:18:42;;;;;;;;;;;5.00;99.90;;;;;;5073297;28;20345;-55
2022/02/21 03:21:08;;;;;;;;;;;5.00;99.90;;;;;;5073583;28;19942;-52
2022/02/21 03:23:35;;;;;;;;;;;5.00;99.90;;;;;;5073371;28;19928;-58
2022/02/21 03:26:01;;;;;;;;;;;4.90;99.90;;;;;;5073530;28;19927;-54
2022/02/21 03:28:28;;;;;;;;;;;4.90;99.90;;;;;;5072825;28;20391;-55
2022/02/21 03:30:56;;;;;;;;;;;4.90;99.90;;;;;;5072760;28;19920;-54
2022/02/21 03:33:23;;;;;;;;;;;4.90;99.90;;;;;;5072890;28;19920;-54
2022/02/21 03:35:50;;;;;;;;;;;4.90;99.90;;;;;;5072982;28;20432;-53
2022/02/21 03:38:16;;;;;;;;;;;4.90;66.80;;;;;;5072627;28;19924;-55
2022/02/21 03:40:43;;;;;;;;;;;4.80;1.00;;;;;;5073210;28;19924;-56
2022/02/21 03:43:10;;;;;;;;;;;4.50;99.90;;;;;;5072650;28;19920;-52
2022/02/21 03:45:36;;;;;;;;;;;4.40;99.90;;;;;;5072786;28;19920;-56
2022/02/21 03:48:05;;;;;;;;;;;4.40;99.90;;;;;;5072594;28;19920;-57
2022/02/21 03:50:31;;;;;;;;;;;4.30;99.90;;;;;;5072496;28;19942;-55
2022/02/21 03:52:58;;;;;;;;;;;4.30;99.90;;;;;;5072600;28;20341;-55
2022/02/21 03:55:25;;;;;;;;;;;4.30;1.00;;;;;;5072573;28;20003;-55
2022/02/21 03:57:51;;;;;;;;;;;4.20;1.00;;;;;;5072637;28;19920;-57
2022/02/21 04:00:19;;;;;;;;;;;4.20;99.90;;;;;;5072298;28;19921;-56
2022/02/21 04:02:46;;;;;;;;;;;4.30;81.30;;;;;;5072475;28;20098;-55
2022/02/21 04:05:14;;;;;;;;;;;4.20;99.90;;;;;;5072786;28;19927;-56
2022/02/21 04:07:42;;;;;;;;;;;4.20;1.00;;;;;;5073862;28;19992;-57
2022/02/21 04:10:09;;;;;;;;;;;4.20;99.90;;;;;;5073796;28;19967;-52
2022/02/21 04:12:36;;;;;;;;;;;4.20;99.90;;;;;;5073405;28;20104;-52
2022/02/21 04:15:02;;;;;;;;;;;4.20;1.00;;;;;;5073416;28;20002;-57
2022/02/21 04:17:29;;;;;;;;;;;4.20;1.00;;;;;;5072129;28;19927;-52
2022/02/21 04:19:55;;;;;;;;;;;4.20;99.90;;;;;;5076125;28;19920;-57
2022/02/21 04:22:23;;;;;;;;;;;4.20;1.00;;;;;;5074756;28;19924;-58
2022/02/21 04:24:50;;;;;;;;;;;4.20;99.90;;;;;;5072713;28;19924;-54
2022/02/21 04:27:16;;;;;;;;;;;4.20;1.00;;;;;;5071748;28;19924;-54
2022/02/21 04:29:43;;;;;;;;;;;4.20;17.90;;;;;;5072201;28;19920;-53
2022/02/21 04:32:10;;;;;;;;;;;4.20;72.60;;;;;;5072219;28;19920;-57
2022/02/21 04:34:36;;;;;;;;;;;4.20;1.00;;;;;;5071693;28;19928;-53
2022/02/21 04:37:03;;;;;;;;;;;4.10;1.00;;;;;;5072257;28;19920;-51
2022/02/21 04:39:31;;;;;;;;;;;4.10;99.90;;;;;;5073582;28;19920;-57
2022/02/21 04:41:58;;;;;;;;;;;4.00;99.90;;;;;;5076881;28;19951;-54
2022/02/21 04:44:24;;;;;;;;;;;3.90;99.90;;;;;;5075862;28;20022;-54
2022/02/21 04:46:55;;;;;;;;;;;3.90;1.00;;;;;;5076108;28;19924;-55
2022/02/21 04:49:21;;;;;;;;;;;3.80;1.00;;;;;;5075884;28;19921;-56
2022/02/21 04:51:48;;;;;;;;;;;3.70;1.00;;;;;;5076064;28;19928;-55
2022/02/21 04:54:14;;;;;;;;;;;3.60;99.90;;;;;;5075959;28;20329;-56
2022/02/21 04:56:42;;;;;;;;;;;3.50;1.00;;;;;;5075587;28;19920;-54
2022/02/21 04:59:09;;;;;;;;;;;3.50;99.90;;;;;;5076002;28;20052;-55
2022/02/21 05:01:35;;;;;;;;;;;3.40;28.20;;;;;;5075661;28;20003;-53
2022/02/21 05:04:02;;;;;;;;;;;3.30;99.90;;;;;;5076150;28;19920;-56
2022/02/21 05:06:28;;;;;;;;;;;3.30;35.20;;;;;;5075824;28;20582;-57
2022/02/21 05:08:55;;;;;;;;;;;3.30;99.90;;;;;;5076104;28;20272;-53
2022/02/21 05:11:21;;;;;;;;;;;3.20;1.00;;;;;;5075820;28;19920;-54
2022/02/21 05:13:49;;;;;;;;;;;3.10;99.90;;;;;;5075588;28;19985;-56
2022/02/21 05:16:16;;;;;;;;;;;3.00;1.00;;;;;;5075579;28;19924;-56
2022/02/21 05:18:42;;;;;;;;;;;2.90;1.00;;;;;;5075529;28;20034;-58
2022/02/21 05:21:09;;;;;;;;;;;2.90;1.00;;;;;;5075607;28;19927;-59
2022/02/21 05:23:35;;;;;;;;;;;2.80;1.00;;;;;;5074876;28;19995;-56
2022/02/21 05:26:02;;;;;;;;;;;2.80;99.90;;;;;;5075233;28;19928;-56
2022/02/21 05:28:28;;;;;;;;;;;2.90;1.00;;;;;;5076279;28;19942;-57
2022/02/21 05:30:56;;;;;;;;;;;2.90;77.80;;;;;;5076471;28;20333;-56
2022/02/21 05:33:23;;;;;;;;;;;2.80;1.00;;;;;;5076478;28;19924;-58
2022/02/21 05:35:49;;;;;;;;;;;2.80;1.00;;;;;;5076512;28;19962;-56
2022/02/21 05:38:16;;;;;;;;;;;2.80;99.90;;;;;;5076683;28;19962;-59
2022/02/21 05:40:42;;;;;;;;;;;2.70;99.90;;;;;;5075514;28;19927;-54
2022/02/21 05:43:09;;;;;;;;;;;2.70;99.90;;;;;;5075116;28;19928;-53
2022/02/21 05:45:35;;;;;;;;;;;2.70;99.90;;;;;;5073933;28;19940;-60
2022/02/21 05:48:04;;;;;;;;;;;2.70;99.90;;;;;;5074261;28;19951;-54
2022/02/21 05:50:30;;;;;;;;;;;2.80;91.70;;;;;;5074841;28;19920;-56
2022/02/21 05:52:57;;;;;;;;;;;2.80;99.90;;;;;;5074669;28;19921;-57
2022/02/21 05:55:23;;;;;;;;;;;2.80;1.00;;;;;;5074793;28;19950;-59
2022/02/21 05:57:50;;;;;;;;;;;2.90;1.00;;;;;;5074619;28;19974;-59
2022/02/21 06:00:16;;;;;;;;;;;3.00;99.90;;;;;;5075051;28;19921;-60
2022/02/21 06:02:43;;;;;;;;;;;2.90;1.00;;;;;;5074468;28;20379;-56
2022/02/21 06:05:11;;;;;;;;;;;2.90;99.90;;;;;;5074674;28;19926;-59
2022/02/21 06:07:37;;;;;;;;;;;2.90;99.90;;;;;;5074384;28;19920;-56
2022/02/21 06:10:04;;;;;;;;;;;2.80;99.90;;;;;;5074397;28;19970;-56
2022/02/21 06:12:31;;;;;;;;;;;2.80;1.00;;;;;;5074167;28;19925;-57
2022/02/21 06:14:58;;;;;;;;;;;2.80;1.00;;;;;;5073966;28;19975;-58
2022/02/21 06:17:25;;;;;;;;;;;2.70;1.00;;;;;;5074254;28;20349;-58
2022/02/21 06:19:51;;;;;;;;;;;2.70;1.00;;;;;;5074108;28;19920;-58
2022/02/21 06:22:20;;;;;;;;;;;2.70;1.00;;;;;;5074358;28;19985;-59
2022/02/21 06:24:46;;;;;;;;;;;2.60;1.00;;;;;;5073738;28;20386;-60
2022/02/21 06:27:13;;;;;;;;;;;2.60;1.00;;;;;;5073824;28;19920;-57
2022/02/21 06:29:39;;;;;;;;;;;2.60;1.00;;;;;;5074109;28;19924;-59
2022/02/21 06:32:06;;;;;;;;;;;2.60;1.00;;;;;;5073546;28;19978;-55
2022/02/21 06:34:33;;;;;;;;;;;2.60;1.00;;;;;;5073466;28;19982;-57
2022/02/21 06:36:59;;;;;;;;;;;2.70;1.00;;;;;;5063002;28;20002;-61
2022/02/21 06:39:27;;;;;;;;;;;2.70;1.00;;;;;;5072883;28;19920;-58
2022/02/21 06:41:54;;;;;;;;;;;2.70;1.00;;;;;;5073562;28;20325;-59
2022/02/21 06:44:20;;;;;;;;;;;2.70;1.00;;;;;;5072923;28;19924;-59
2022/02/21 06:46:47;;;;;;;;;;;2.60;1.00;;;;;;5072878;28;20074;-60
2022/02/21 06:49:13;;;;;;;;;;;2.70;1.00;;;;;;5072888;28;19920;-60
2022/02/21 06:51:40;;;;;;;;;;;2.70;1.00;;;;;;5073125;28;19920;-58
2022/02/21 06:54:08;;;;;;;;;;;2.70;1.00;;;;;;5072553;28;20456;-61
2022/02/21 06:56:35;;;;;;;;;;;2.70;1.00;;;;;;5072501;28;20389;-61
2022/02/21 06:59:02;;;;;;;;;;;2.70;99.90;;;;;;5072969;28;19921;-62
2022/02/21 07:01:29;;;;;;;;;;;2.70;99.90;;;;;;5072182;28;19920;-61
2022/02/21 07:03:55;;;;;;;;;;;2.60;54.80;;;;;;5071967;28;19920;-61
2022/02/21 07:06:22;;;;;;;;;;;2.60;1.00;;;;;;5072301;28;19920;-61
2022/02/21 07:08:48;;;;;;;;;;;2.60;1.00;;;;;;5072627;28;19944;-62
2022/02/21 07:11:15;;;;;;;;;;;2.60;1.00;;;;;;5072836;28;19927;-60
2022/02/21 07:13:42;;;;;;;;;;;2.70;1.00;;;;;;5072700;28;19928;-61
2022/02/21 07:16:09;;;;;;;;;;;2.70;99.90;;;;;;5072565;28;19928;-61
2022/02/21 07:18:37;;;;;;;;;;;2.80;1.00;;;;;;5072182;28;19921;-60
2022/02/21 07:21:04;;;;;;;;;;;2.80;99.90;;;;;;5072248;28;20379;-61
2022/02/21 07:23:31;;;;;;;;;;;2.80;99.90;;;;;;5071863;28;19932;-61
2022/02/21 07:25:58;;;;;;;;;;;2.80;1.00;;;;;;5072274;28;20515;-60
2022/02/21 07:28:24;;;;;;;;;;;2.80;1.00;;;;;;5072449;28;19921;-62
2022/02/21 07:30:52;;;;;;;;;;;2.70;1.00;;;;;;5072437;28;19927;-61
2022/02/21 07:33:19;;;;;;;;;;;2.70;99.90;;;;;;5072186;28;19928;-56
2022/02/21 07:35:45;;;;;;;;;;;2.70;99.90;;;;;;5072158;28;19920;-59
2022/02/21 07:38:12;;;;;;;;;;;2.70;1.00;;;;;;5072980;28;20105;-57
2022/02/21 07:40:39;;;;;;;;;;;2.80;99.90;;;;;;5072844;28;19924;-58
2022/02/21 07:43:05;;;;;;;;;;;2.90;1.00;;;;;;5072797;28;19926;-57
2022/02/21 07:45:32;;;;;;;;;;;3.00;73.30;;;;;;5072707;28;20414;-59
2022/02/21 07:48:01;;;;;;;;;;;3.00;1.00;;;;;;5072689;28;19920;-58
2022/02/21 07:50:30;;;;;;;;;;;3.00;1.00;;;;;;5073565;28;19928;-56
2022/02/21 07:52:57;;;;;;;;;;;3.10;13.60;;;;;;5072388;28;20426;-55
2022/02/21 07:55:24;;;;;;;;;;;3.10;1.00;;;;;;5072193;28;19927;-59
2022/02/21 07:57:51;;;;;;;;;;;3.20;99.90;;;;;;5071949;28;20283;-59
2022/02/21 08:00:18;;;;;;;;;;;3.20;1.00;;;;;;5072543;28;19927;-57
2022/02/21 08:02:45;;;;;;;;;;;3.30;1.00;;;;;;5072223;28;19920;-59
2022/02/21 08:05:13;;;;;;;;;;;3.30;1.00;;;;;;5071888;28;19924;-60
2022/02/21 08:07:40;;;;;;;;;;;3.40;1.00;;;;;;5072011;28;19935;-58
2022/02/21 08:10:07;;;;;;;;;;;3.50;1.00;;;;;;5072228;28;20505;-61
2022/02/21 08:12:34;;;;;;;;;;;3.70;99.90;;;;;;5072628;28;19920;-61
2022/02/21 08:15:00;;;;;;;;;;;3.70;1.00;;;;;;5071987;28;20514;-57
2022/02/21 08:17:27;;;;;;;;;;;3.70;1.00;;;;;;5072648;28;19940;-59
2022/02/21 08:19:54;;;;;;;;;;;3.80;26.90;;;;;;5072676;28;19974;-61
2022/02/21 08:22:22;;;;;;;;;;;3.90;1.00;;;;;;5073008;28;19927;-60
2022/02/21 08:24:49;;;;;;;;;;;3.90;1.00;;;;;;5072641;28;19921;-58
2022/02/21 08:27:15;;;;;;;;;;;4.00;1.00;;;;;;5073590;28;19928;-60
2022/02/21 08:29:42;;;;;;;;;;;4.00;99.90;;;;;;5071871;28;19970;-60
2022/02/21 08:32:08;;;;;;;;;;;4.00;1.00;;;;;;5071864;28;19929;-60
2022/02/21 08:34:38;;;;;;;;;;;4.00;99.90;;;;;;5071658;28;19925;-58
2022/02/21 08:37:06;;;;;;;;;;;4.10;99.90;;;;;;5071472;28;20462;-60
2022/02/21 08:39:34;;;;;;;;;;;4.10;43.30;;;;;;5071648;28;19987;-55
2022/02/21 08:42:01;;;;;;;;;;;4.20;99.90;;;;;;5071827;28;19927;-58
2022/02/21 08:44:30;;;;;;;;;;;4.20;99.90;;;;;;5070765;28;19970;-57
2022/02/21 08:46:57;;;;;;;;;;;4.20;99.90;;;;;;5070800;28;19927;-60
2022/02/21 08:49:24;;;;;;;;;;;4.30;99.90;;;;;;5071570;28;19966;-59
2022/02/21 08:51:51;;;;;;;;;;;4.40;99.90;;;;;;5071092;28;19921;-59
2022/02/21 08:54:19;;;;;;;2.30;0.90;;;4.60;99.90;;;;;;5070852;28;20234;-61
2022/02/21 08:56:47;;;;;;;5.53;1.87;;;4.60;1.00;;;;;;5070327;28;20204;-58
2022/02/21 08:59:16;;;;;;;3.40;1.30;;;4.60;1.00;;;;;;5070897;28;20201;-58
2022/02/21 09:01:44;;;;;;;9.27;1.93;;;4.60;1.00;;;;;;5070742;28;20452;-59
2022/02/21 09:04:11;;;;;;;5.77;1.30;;;4.70;1.00;;;;;;5070578;28;20693;-61
2022/02/21 09:06:38;;;;;;;6.37;1.73;;;4.80;1.00;;;;;;5070610;28;20207;-57
2022/02/21 09:09:05;;;;;;;5.20;1.47;;;4.80;1.00;;;;;;5070447;28;20210;-58
2022/02/21 09:11:32;;;;;;;3.83;1.53;;;4.90;99.90;;;;;;5070364;28;20217;-59
2022/02/21 09:14:00;;;;;;;3.37;1.53;;;5.00;99.90;;;;;;5070563;28;20280;-58
2022/02/21 09:16:27;;;;;;;6.70;2.00;;;5.10;99.90;;;;;;5070590;28;20210;-59
2022/02/21 09:18:53;;;;;;;8.77;1.80;;;5.20;99.90;;;;;;5071130;28;20210;-55
2022/02/21 09:21:20;;;;;;;7.47;2.17;;;5.20;99.90;;;;;;5070772;28;20590;-55
2022/02/21 09:23:47;;;;;;;7.77;2.13;;;5.30;99.90;;;;;;5070792;28;20232;-61
2022/02/21 09:26:13;;;;;;;2.57;1.00;;;5.20;99.90;;;;;;5072246;28;20213;-57
2022/02/21 09:28:40;;;;;;;10.77;1.70;;;5.30;99.90;;;;;;5074451;28;20221;-58
2022/02/21 09:31:08;;;;;;;6.70;1.80;;;5.30;99.90;;;;;;5074638;28;20549;-60
2022/02/21 09:33:35;;;;;;;3.93;0.87;;;5.30;99.90;;;;;;5074081;28;20694;-60
2022/02/21 09:36:02;;;;;;;2.57;1.90;;;5.20;99.90;;;;;;5074145;28;20298;-62
2022/02/21 09:38:28;;;;;;;3.53;1.23;;;5.20;99.90;;;;;;5073822;28;20207;-61
2022/02/21 09:40:56;;;;;;;3.60;1.60;;;5.30;99.90;;;;;;5073973;28;20229;-62
2022/02/21 09:43:26;;;;;;;3.80;1.37;;;5.30;99.90;;;;;;5073764;28;20230;-60
2022/02/21 09:45:57;;;;;;;5.07;1.60;;;5.30;99.90;;;;;;5073555;28;20265;-60
2022/02/21 09:48:27;;;;;;;8.33;1.97;;;5.30;99.90;;;;;;5073152;28;20218;-59
2022/02/21 09:50:58;;;;;;;4.53;1.37;;;5.30;99.90;;;;;;5073637;28;20214;-57
2022/02/21 09:53:27;;;;;;;6.40;1.83;;;5.40;99.90;;;;;;5073183;28;20203;-59
2022/02/21 09:55:54;;;;;;;9.17;1.97;;;5.40;99.90;;;;;;5073138;28;20617;-58
2022/02/21 09:58:21;;;;;;;8.97;1.77;;;5.50;94.50;;;;;;5073443;28;20311;-59
2022/02/21 10:00:49;;;;;;;11.10;1.40;;;5.50;99.90;;;;;;5073110;28;20214;-60
2022/02/21 10:03:18;;;;;;;4.23;1.57;;;5.60;98.60;;;;;;5073727;28;20191;-58
2022/02/21 10:05:48;;;;;;;;;;;5.60;94.10;;;;;;5073374;28;20045;-59
2022/02/21 10:08:15;;;;;;;;;;;5.50;6.60;;;;;;5073739;28;19967;-58
2022/02/21 10:10:42;;;;;;;;;;;5.50;33.20;;;;;;5073855;28;20014;-61
2022/02/21 10:13:09;;;;;;;;;;;5.40;1.80;;;;;;5073640;28;19924;-61
2022/02/21 10:15:36;;;;;;;;;;;5.50;97.60;;;;;;5073690;28;19920;-58
2022/02/21 10:18:10;;;;;;;;;;;5.50;99.90;;;;;;5072971;28;20015;-60
2022/02/21 10:20:51;;;;;;;;;;;5.50;99.90;;;;;;5073894;28;19920;-60
2022/02/21 10:23:18;;;;;;;;;;;5.50;99.90;;;;;;5073799;28;19920;-59
2022/02/21 10:25:53;;;;;;;;;;;5.50;99.90;;;;;;5073818;28;19920;-57
2022/02/21 10:28:24;;;;;;;;;;;5.40;99.90;;;;;;5073226;28;19931;-60
2022/02/21 10:31:05;;;;;;;;;;;5.40;99.90;;;;;;5073038;28;19924;-61
2022/02/21 10:33:32;;;;;;;;;;;5.30;99.90;;;;;;5073182;28;19927;-62
2022/02/21 10:35:58;;;;;;;;;;;5.40;99.90;;;;;;5073034;28;19943;-60
2022/02/21 10:38:39;;;;;;;;;;;5.30;99.90;;;;;;5072233;28;19920;-58
2022/02/21 10:41:07;;;;;;;;;;;5.30;1.00;;;;;;5072776;28;20303;-60
2022/02/21 10:43:34;;;;;;;;;;;5.10;1.00;;;;;;5073577;28;19920;-60
2022/02/21 10:46:11;;;;;;;;;;;4.90;1.00;;;;;;5072962;28;20248;-60
2022/02/21 10:48:41;;;;;;;;;;;4.70;99.90;;;;;;5073044;28;19920;-58
2022/02/21 10:51:08;;;;;;;;;;;4.60;99.90;;;;;;5073568;28;19920;-59
2022/02/21 10:53:40;;;;;;;;;;;4.50;99.90;;;;;;5072829;28;19920;-58
2022/02/21 10:56:07;;;;;;;;;;;4.30;1.00;;;;;;5073090;28;20377;-59
2022/02/21 10:58:34;;;;;;;;;;;4.10;99.90;;;;;;5072792;28;20267;-61
2022/02/21 11:01:01;;;;;;;;;;;4.00;99.90;;;;;;5072970;28;19932;-64
2022/02/21 11:03:29;;;;;;;;;;;3.90;1.00;;;;;;5072615;28;20375;-61
2022/02/21 11:05:59;;;;;;;;;;;3.80;1.00;;;;;;5072594;28;19948;-61
2022/02/21 11:08:28;;;;;;;;;;;3.70;1.00;;;;;;5072841;28;20359;-60
2022/02/21 11:10:59;;;;;;;;;;;3.60;70.40;;;;;;5073558;28;19921;-60
2022/02/21 11:13:26;;;;;;;;;;;3.60;99.90;;;;;;5077245;28;19920;-64
2022/02/21 11:15:53;;;;;;;;;;;3.60;99.90;;;;;;5072861;28;20045;-64
2022/02/21 11:18:20;;;;;;;;;;;3.70;99.90;;;;;;5072748;28;19962;-60
2022/02/21 11:20:46;;;;;;;;;;;3.70;99.90;;;;;;5072654;28;19921;-61
2022/02/21 11:23:13;;;;;;;;;;;3.70;99.90;;;;;;5073622;28;19924;-58
2022/02/21 11:25:42;;;;;;;;;;;3.70;99.90;;;;;;5073175;28;20425;-58
2022/02/21 11:28:15;;;;;;;;;;;3.80;99.90;;;;;;5072485;28;19920;-54
2022/02/21 11:30:43;;;;;;;;;;;3.80;99.90;;;;;;5072784;28;19939;-52
2022/02/21 11:33:10;;;;;;;;;;;3.80;99.90;;;;;;5072028;28;20299;-53
2022/02/21 11:35:37;;;;;;;;;;;3.80;99.90;;;;;;5072322;28;20289;-59
2022/02/21 11:38:18;;;;;;;;;;;3.80;99.90;;;;;;5072063;28;19921;-59
2022/02/21 11:40:54;;;;;;;;;;;3.90;99.90;;;;;;5072543;28;19921;-67
2022/02/21 11:43:29;;;;;;;;;;;3.90;99.90;;;;;;5072491;28;19924;-66
2022/02/21 11:45:56;;;;;;;;;;;4.00;99.90;;;;;;5071759;28;19928;-66
2022/02/21 11:48:23;;;;;;;;;;;4.00;99.90;;;;;;5072650;28;19966;-71
2022/02/21 11:50:57;;;;;;;;;;;4.10;99.90;;;;;;5072010;28;19927;-67
2022/02/21 11:53:25;;;;;;;;;;;4.10;99.90;;;;;;5072075;28;19920;-66
2022/02/21 11:55:52;;;;;;;;;;;4.10;99.90;;;;;;5071894;28;19928;-66
2022/02/21 11:58:36;;;;;;;;;;;4.20;99.90;;;;;;5072930;28;19955;-67
2022/02/21 12:01:09;;;;;;;;;;;4.20;99.90;;;;;;5078146;28;19920;-68
2022/02/21 12:03:36;;;;;;;;;;;4.20;99.90;;;;;;5075322;28;19927;-69
2022/02/21 12:06:17;;;;;;;;;;;4.30;99.90;;;;;;5072381;28;19999;-67
2022/02/21 12:08:44;;;;;;;;;;;4.30;99.90;;;;;;5070675;28;19927;-68
2022/02/21 12:11:15;;;;;;;;;;;4.30;99.90;;;;;;5072449;28;19928;-67
2022/02/21 12:13:59;;;;;;;;;;;4.50;99.90;;;;;;5072021;28;19960;-64
2022/02/21 12:16:27;;;;;;;;;;;4.40;99.90;;;;;;5060578;28;19997;-69
2022/02/21 12:18:58;;;;;;;;;;;4.40;99.90;;;;;;5071605;28;19929;-69
2022/02/21 12:21:26;;;;;;;;;;;4.40;99.90;;;;;;5071812;28;19955;-69
2022/02/21 12:24:03;;;;;;;;;;;4.30;99.90;;;;;;5071852;28;19936;-68
2022/02/21 12:26:30;;;;;;;;;;;4.20;99.90;;;;;;5070811;28;19925;-67
2022/02/21 12:29:13;;;;;;;;;;;4.20;99.90;;;;;;5071568;28;19920;-67
2022/02/21 12:31:43;;;;;;;;;;;4.20;99.90;;;;;;5071097;28;19981;-67
2022/02/21 12:34:10;;;;;;;;;;;4.30;99.90;;;;;;5115033;22;19925;-69
2022/02/21 12:36:38;;;;;;;;;;;4.40;99.90;;;;;;5051174;28;19920;-68
2022/02/21 12:39:05;;;;;;;;;;;4.40;99.90;;;;;;5051253;28;19920;-66
2022/02/21 12:41:35;;;;;;;;;;;4.50;99.90;;;;;;5051492;28;19920;-66
2022/02/21 12:44:03;;;;;;;;;;;4.70;99.90;;;;;;5056247;28;19921;-66
2022/02/21 12:46:31;;;;;;;;;;;4.70;99.90;;;;;;5071417;28;19936;-65
2022/02/21 12:48:59;;;;;;;;;;;4.70;99.90;;;;;;5071994;28;19920;-64
2022/02/21 12:51:26;;;;;;;;;;;4.70;99.90;;;;;;5072804;28;19934;-62
2022/02/21 12:53:58;;;;;;;;;;;4.70;99.90;;;;;;5071588;28;19927;-64
2022/02/21 12:56:25;;;;;;;;;;;4.80;99.90;;;;;;5071667;28;20406;-64
2022/02/21 12:58:52;;;;;;;;;;;4.80;99.90;;;;;;5071344;28;19932;-63
2022/02/21 13:01:19;;;;;;;;;;;4.90;99.90;;;;;;5074244;28;19965;-64
2022/02/21 13:03:53;;;;;;;;;;;4.90;99.90;;;;;;5075197;28;20379;-64
2022/02/21 13:06:21;;;;;;;;;;;4.90;99.90;;;;;;5064494;28;19921;-62
2022/02/21 13:08:48;;;;;;;;;;;4.90;99.90;;;;;;5055406;28;20272;-62
2022/02/21 13:11:21;;;;;;;;;;;4.90;99.90;;;;;;5055589;28;19921;-62
2022/02/21 13:13:48;;;;;;;;;;;4.80;99.90;;;;;;5056346;28;19920;-57
2022/02/21 13:16:14;;;;;;;;;;;4.80;99.90;;;;;;5055319;28;20337;-60
2022/02/21 13:18:48;;;;;;;;;;;4.70;99.90;;;;;;5054906;28;19944;-60
2022/02/21 13:21:26;;;;;;;;;;;4.70;99.90;;;;;;5056033;28;20028;-60
2022/02/21 13:23:53;;;;;;;;;;;4.70;99.90;;;;;;5054964;28;19928;-58
2022/02/21 13:26:20;;;;;;;;;;;4.70;99.90;;;;;;5054283;28;20371;-59
2022/02/21 13:28:48;;;;;;;;;;;4.70;99.90;;;;;;5054675;28;19928;-61
2022/02/21 13:31:14;;;;;;;;;;;4.70;99.90;;;;;;5054678;28;20363;-61
2022/02/21 13:33:41;;;;;;;;;;;4.70;99.90;;;;;;5054838;28;19928;-61
2022/02/21 13:36:07;;;;;;;;;;;4.70;99.90;;;;;;5054203;28;19926;-61
2022/02/21 13:38:35;;;;;;;;;;;4.70;99.90;;;;;;5056719;28;19928;-64
2022/02/21 13:41:02;;;;;;;;;;;4.70;99.90;;;;;;5074407;28;19924;-61
2022/02/21 13:43:29;;;;;;;;;;;4.70;99.90;;;;;;5074156;28;20333;-61
2022/02/21 13:45:56;;;;;;;;;;;4.80;99.90;;;;;;5073754;28;19928;-61
2022/02/21 13:48:24;;;;;;;;;;;4.80;99.90;;;;;;5062753;28;19921;-61
2022/02/21 13:50:51;;;;;;;;;;;4.90;99.90;;;;;;5054339;28;19928;-60
2022/02/21 13:53:31;;;;;;;;;;;5.00;99.90;;;;;;5054434;28;19927;-60
2022/02/21 13:56:02;;;;;;;;;;;5.00;99.90;;;;;;5054560;28;20280;-60
2022/02/21 13:58:31;;;;;;;;;;;5.00;99.90;;;;;;5054664;28;19921;-58
2022/02/21 14:01:06;;;;;;;;;;;5.00;99.90;;;;;;5055002;28;19928;-58
2022/02/21 14:03:37;;;;;;;;;;;5.00;99.90;;;;;;5054736;28;19970;-59
2022/02/21 14:06:06;;;;;;;;;;;5.10;99.90;;;;;;5053819;28;20363;-57
2022/02/21 14:08:36;;;;;;;;;;;5.10;99.90;;;;;;5053922;28;20031;-60
2022/02/21 14:11:04;;;;;;;;;;;5.10;99.90;;;;;;5053211;28;20522;-60
2022/02/21 14:13:31;;;;;;;;;;;5.10;99.90;;;;;;5053629;28;19921;-56
2022/02/21 14:15:58;;;;;;;;;;;5.20;99.90;;;;;;5053462;28;19979;-62
2022/02/21 14:18:24;;;;;;;;;;;5.20;99.90;;;;;;5053521;28;20352;-59
2022/02/21 14:20:51;;;;;;;;;;;5.20;99.90;;;;;;5053838;28;20367;-57
2022/02/21 14:23:17;;;;;;;;;;;5.30;99.90;;;;;;5053633;28;19982;-60
2022/02/21 14:25:44;;;;;;;;;;;5.30;99.90;;;;;;5053643;28;19921;-60
2022/02/21 14:28:12;;;;;;;;;;;5.40;99.90;;;;;;5052546;28;20384;-61